Time;durP1;ratioP1;P1;durP2;ratioP2;P2;SDS_P1;SDS_P2;PMS_P1;PMS_P2;Temp;Humidity;BMP_temperature;BMP_pressure;BME280_temperature;BME280_humidity;BME280_pressure;Samples;Min_cycle;Max_cycle;Signal;HPM_P1;HPM_P2
2022/10/09 00:01:14;;;;;;;9.02;1.80;;;;;;;9.00;87.86;101086.25;4996727;28;20033;-76
2022/10/09 00:03:41;;;;;;;5.38;1.60;;;;;;;8.98;87.68;101088.47;4998794;28;20057;-76
2022/10/09 00:06:08;;;;;;;7.35;1.50;;;;;;;9.01;87.30;101081.53;5018059;28;20075;-76
2022/10/09 00:08:34;;;;;;;8.20;2.03;;;;;;;8.95;87.55;101091.78;5022035;28;20116;-76
2022/10/09 00:11:04;;;;;;;9.55;1.75;;;;;;;8.95;88.08;101075.97;5030652;28;20026;-76
2022/10/09 00:13:30;;;;;;;5.45;1.40;;;;;;;8.95;87.91;101083.47;5000634;28;20467;-76
2022/10/09 00:15:55;;;;;;;8.00;1.45;;;;;;;8.94;87.79;101071.56;5020312;28;20114;-76
2022/10/09 00:18:21;;;;;;;6.85;1.30;;;;;;;8.94;87.82;101067.91;4989401;28;20026;-76
2022/10/09 00:20:46;;;;;;;6.07;1.58;;;;;;;8.92;88.68;101065.44;5000052;28;20033;-76
2022/10/09 00:23:17;;;;;;;3.28;1.08;;;;;;;8.91;89.14;101065.69;4993576;28;20030;-76
2022/10/09 00:25:53;;;;;;;5.57;1.55;;;;;;;8.89;89.28;101059.63;5002906;28;20061;-76
2022/10/09 00:28:19;;;;;;;7.50;1.65;;;;;;;8.89;88.98;101059.63;5002078;28;20049;-76
2022/10/09 00:30:45;;;;;;;3.25;1.35;;;;;;;8.89;88.82;101056.84;4985635;28;20034;-76
2022/10/09 00:33:10;;;;;;;4.80;1.10;;;;;;;8.88;88.44;101052.38;5021837;28;20037;-76
2022/10/09 00:35:39;;;;;;;4.75;1.20;;;;;;;8.88;88.88;101055.16;5024486;28;20025;-76
2022/10/09 00:38:05;;;;;;;6.10;1.35;;;;;;;8.86;88.35;101052.66;5025051;28;20098;-76
2022/10/09 00:40:31;;;;;;;6.97;1.73;;;;;;;8.88;88.25;101046.84;5041710;28;20033;-76
2022/10/09 00:42:57;;;;;;;4.32;1.50;;;;;;;8.86;88.12;101052.66;5008709;28;20021;-76
2022/10/09 00:45:22;;;;;;;3.90;1.35;;;;;;;8.84;88.33;101054.88;5024913;28;20117;-76
2022/10/09 00:47:50;;;;;;;7.93;1.40;;;;;;;8.83;88.20;101047.69;5041191;28;20032;-76
2022/10/09 00:50:21;;;;;;;4.50;1.48;;;;;;;8.79;88.50;101041.00;5008474;28;20123;-76
2022/10/09 00:52:55;;;;;;;5.88;1.40;;;;;;;8.80;88.80;101041.81;5025099;28;20385;-76
2022/10/09 00:55:21;;;;;;;7.97;1.45;;;;;;;8.78;88.53;101039.34;5025137;28;20055;-76
2022/10/09 00:57:46;;;;;;;6.40;1.50;;;;;;;8.81;88.11;101043.50;5024713;28;20029;-76
2022/10/09 01:00:12;;;;;;;5.13;1.38;;;;;;;8.77;88.61;101047.91;5008089;28;20033;-76
2022/10/09 01:02:38;;;;;;;7.15;1.55;;;;;;;8.73;89.00;101037.38;5002822;28;20409;-76
2022/10/09 01:05:04;;;;;;;3.70;1.30;;;;;;;8.70;89.28;101037.91;5001810;28;20076;-76
2022/10/09 01:07:42;;;;;;;6.28;1.45;;;;;;;8.70;89.35;101037.06;5003461;28;20021;-76
2022/10/09 01:10:31;;;;;;;4.95;1.50;;;;;;;8.71;89.16;101034.03;5057040;28;20084;-76
2022/10/09 01:13:03;;;;;;;6.78;1.50;;;;;;;8.68;89.45;101034.56;5003678;28;20032;-76
2022/10/09 01:15:54;;;;;;;7.97;1.42;;;;;;;8.69;89.65;101029.84;5031168;28;20038;-77
2022/10/09 01:18:29;;;;;;;4.05;1.27;;;;;;;8.68;89.40;101023.47;5017839;28;20040;-77
2022/10/09 01:20:58;;;;;;;5.60;1.40;;;;;;;8.67;89.42;101021.81;5039270;28;20025;-76
2022/10/09 01:24:05;;;;;;;4.07;1.40;;;;;;;8.64;89.15;101016.00;5037664;28;20037;-76
2022/10/09 01:26:45;;;;;;;6.95;1.85;;;;;;;8.66;89.48;101011.88;5018876;28;20029;-77
2022/10/09 01:29:11;;;;;;;2.80;1.17;;;;;;;8.63;89.23;101004.06;5036726;28;20367;-76
2022/10/09 01:31:39;;;;;;;5.03;1.50;;;;;;;8.61;89.37;101009.06;4988122;28;20041;-76
2022/10/09 01:34:04;;;;;;;4.93;1.50;;;;;;;8.61;89.12;101000.75;5033976;28;20025;-76
2022/10/09 01:36:30;;;;;;;5.85;1.67;;;;;;;8.61;89.73;101006.28;4994230;28;20029;-76
2022/10/09 01:38:59;;;;;;;4.57;1.33;;;;;;;8.61;89.40;101000.75;5036946;28;20029;-76
2022/10/09 01:41:25;;;;;;;4.60;1.27;;;;;;;8.59;89.52;100994.66;5004181;28;20189;-76
2022/10/09 01:43:50;;;;;;;5.30;1.58;;;;;;;8.60;89.53;100999.06;5020877;28;20057;-76
2022/10/09 01:46:36;;;;;;;5.65;1.67;;;;;;;8.58;89.66;100993.00;4994450;28;20026;-76
2022/10/09 01:49:05;;;;;;;3.92;1.50;;;;;;;8.57;90.02;100990.47;5000353;28;20121;-76
2022/10/09 01:52:05;;;;;;;6.30;1.60;;;;;;;8.54;89.76;100983.53;5020529;28;20489;-76
2022/10/09 01:54:41;;;;;;;6.25;1.30;;;;;;;8.52;89.48;100980.19;5032562;28;20054;-76
2022/10/09 01:57:07;;;;;;;5.10;1.50;;;;;;;8.51;89.99;100978.53;4988534;28;20034;-76
2022/10/09 01:59:35;;;;;;;5.35;1.65;;;;;;;8.52;90.42;100976.59;5031913;28;20080;-76
2022/10/09 02:02:00;;;;;;;6.13;1.50;;;;;;;8.49;90.91;100975.22;5000392;28;20034;-76
2022/10/09 02:04:26;;;;;;;7.03;1.45;;;;;;;8.48;90.94;100963.31;5032113;28;20056;-76
2022/10/09 02:06:51;;;;;;;6.45;1.80;;;;;;;8.46;91.12;100957.19;5023162;28;20039;-76
2022/10/09 02:09:17;;;;;;;5.47;1.50;;;;;;;8.44;91.43;100955.81;5003181;28;20037;-76
2022/10/09 02:11:44;;;;;;;6.18;1.67;;;;;;;8.47;91.94;100958.06;5019983;28;20044;-76
2022/10/09 02:14:10;;;;;;;4.03;1.45;;;;;;;8.47;91.41;100953.34;5013142;28;20040;-76
2022/10/09 02:16:40;;;;;;;7.85;1.85;;;;;;;8.46;91.08;100945.28;4987154;28;20037;-76
2022/10/09 02:19:18;;;;;;;6.93;1.60;;;;;;;8.45;91.28;100941.72;4987719;28;20030;-76
2022/10/09 02:21:46;;;;;;;7.35;1.83;;;;;;;8.46;90.73;100939.75;5020440;28;20061;-76
2022/10/09 02:24:14;;;;;;;5.57;1.60;;;;;;;8.45;90.31;100946.41;4998469;28;20084;-76
2022/10/09 02:26:40;;;;;;;5.88;1.50;;;;;;;8.44;90.77;100937.28;5012175;28;20025;-76
2022/10/09 02:29:05;;;;;;;6.45;1.42;;;;;;;8.41;91.16;100925.91;5021675;28;20087;-76
2022/10/09 02:31:32;;;;;;;8.20;1.70;;;;;;;8.40;90.97;100930.59;5039243;28;20033;-76
2022/10/09 02:34:17;;;;;;;8.45;1.80;;;;;;;8.42;90.84;100922.03;5022834;28;20163;-76
2022/10/09 02:36:42;;;;;;;6.18;1.48;;;;;;;8.39;91.08;100920.66;5041482;28;20036;-76
2022/10/09 02:39:08;;;;;;;4.18;1.58;;;;;;;8.39;91.08;100919.81;5006307;28;20029;-76
2022/10/09 02:41:33;;;;;;;6.78;1.73;;;;;;;8.37;91.19;100913.69;5022985;28;20025;-76
2022/10/09 02:43:59;;;;;;;4.00;1.50;;;;;;;8.36;90.44;100914.75;5022815;28;20033;-76
2022/10/09 02:46:24;;;;;;;6.65;1.60;;;;;;;8.36;90.51;100914.75;5006185;28;20063;-76
2022/10/09 02:48:50;;;;;;;6.18;1.63;;;;;;;8.32;90.85;100908.13;5039255;28;20029;-76
2022/10/09 02:51:15;;;;;;;8.93;1.75;;;;;;;8.32;90.69;100908.13;5022767;28;20055;-76
2022/10/09 02:53:41;;;;;;;6.10;1.73;;;;;;;8.31;91.23;100901.75;5038942;28;20052;-76
2022/10/09 02:56:06;;;;;;;5.82;1.75;;;;;;;8.28;90.99;100903.13;5055812;28;20041;-76
2022/10/09 02:58:33;;;;;;;8.18;1.52;;;;;;;8.27;90.79;100897.84;5006103;28;20116;-76
2022/10/09 03:00:58;;;;;;;6.00;1.60;;;;;;;8.26;90.77;100899.78;4999154;28;20079;-76
2022/10/09 03:03:24;;;;;;;7.07;1.60;;;;;;;8.24;90.75;100896.44;5019050;28;20033;-76
2022/10/09 03:06:05;;;;;;;4.57;1.35;;;;;;;8.23;90.64;100878.19;5002332;28;20053;-76
2022/10/09 03:08:30;;;;;;;8.82;2.28;;;;;;;8.19;91.08;100878.97;5012262;28;20039;-76
2022/10/09 03:10:56;;;;;;;8.88;1.77;;;;;;;8.21;91.10;100883.16;5015410;28;20557;-76
2022/10/09 03:13:21;;;;;;;5.50;1.63;;;;;;;8.18;91.48;100875.38;4983061;28;20466;-76
2022/10/09 03:15:47;;;;;;;7.05;1.58;;;;;;;8.16;91.80;100874.00;5015038;28;20464;-76
2022/10/09 03:18:12;;;;;;;7.28;1.85;;;;;;;8.12;92.10;100872.88;5022067;28;20055;-76
2022/10/09 03:20:38;;;;;;;7.57;1.83;;;;;;;8.12;92.09;100870.94;5009310;28;20040;-76
2022/10/09 03:23:03;;;;;;;7.47;1.90;;;;;;;8.13;91.84;100874.53;4995787;28;20131;-76
2022/10/09 03:25:29;;;;;;;5.90;1.85;;;;;;;8.11;91.26;100874.81;5022018;28;20029;-76
2022/10/09 03:27:54;;;;;;;4.43;1.55;;;;;;;8.08;91.19;100869.81;5022898;28;20037;-76
2022/10/09 03:30:20;;;;;;;5.68;1.75;;;;;;;8.06;91.49;100878.38;5001225;28;20038;-76
2022/10/09 03:32:45;;;;;;;8.32;2.08;;;;;;;8.05;91.13;100881.41;5018540;28;20052;-76
2022/10/09 03:35:11;;;;;;;6.32;1.40;;;;;;;8.01;91.42;100892.19;5002443;28;20029;-76
2022/10/09 03:37:36;;;;;;;10.05;1.98;;;;;;;7.91;92.29;100880.22;5004871;28;20030;-76
2022/10/09 03:40:02;;;;;;;5.93;1.60;;;;;;;7.91;91.61;100886.59;5029732;28;20021;-76
2022/10/09 03:42:27;;;;;;;7.93;2.00;;;;;;;7.86;92.20;100877.44;5021919;28;20025;-76
2022/10/09 03:44:53;;;;;;;7.07;2.00;;;;;;;7.83;92.14;100871.34;5022097;28;20036;-76
2022/10/09 03:47:18;;;;;;;6.78;1.73;;;;;;;7.84;92.20;100867.47;5021564;28;20025;-76
2022/10/09 03:49:44;;;;;;;5.25;1.70;;;;;;;7.86;91.79;100867.22;5025511;28;20389;-76
2022/10/09 03:52:09;;;;;;;5.80;1.70;;;;;;;7.86;91.56;100869.97;5025821;28;20028;-76
2022/10/09 03:54:35;;;;;;;7.78;1.90;;;;;;;7.84;91.73;100869.41;5059239;28;20041;-76
2022/10/09 03:57:00;;;;;;;7.78;1.83;;;;;;;7.84;91.92;100869.41;5025791;28;20033;-76
2022/10/09 03:59:26;;;;;;;8.13;1.83;;;;;;;7.81;91.85;100864.41;5042317;28;20032;-76
2022/10/09 04:01:51;;;;;;;5.38;1.80;;;;;;;7.79;91.96;100859.13;5027993;28;20044;-76
2022/10/09 04:04:17;;;;;;;6.70;1.67;;;;;;;7.78;92.14;100857.47;5004298;28;20033;-76
2022/10/09 04:06:42;;;;;;;9.38;2.03;;;;;;;7.78;92.63;100863.00;4989558;28;20045;-76
2022/10/09 04:09:08;;;;;;;7.82;2.08;;;;;;;7.78;92.32;100857.47;5004323;28;20379;-76
2022/10/09 04:11:33;;;;;;;5.15;1.50;;;;;;;7.76;92.02;100847.78;5002715;28;20030;-76
2022/10/09 04:13:59;;;;;;;7.07;1.83;;;;;;;7.75;91.95;100848.91;5004074;28;20029;-76
2022/10/09 04:16:25;;;;;;;7.65;1.85;;;;;;;7.76;91.74;100853.31;5021896;28;20548;-76
2022/10/09 04:18:50;;;;;;;7.72;1.73;;;;;;;7.72;92.00;100849.44;5023194;28;20025;-76
2022/10/09 04:21:16;;;;;;;13.68;2.17;;;;;;;7.70;92.20;100843.31;5004418;28;20037;-76
2022/10/09 04:23:41;;;;;;;7.00;1.83;;;;;;;7.68;92.31;100846.34;5019857;28;20026;-76
2022/10/09 04:26:08;;;;;;;8.35;2.20;;;;;;;7.68;92.69;100846.34;5029623;28;20040;-76
2022/10/09 04:28:34;;;;;;;7.10;2.00;;;;;;;7.67;92.39;100849.41;5009124;28;20378;-76
2022/10/09 04:30:59;;;;;;;5.82;2.28;;;;;;;7.63;92.30;100854.59;5025035;28;20078;-76
2022/10/09 04:33:25;;;;;;;9.48;2.10;;;;;;;7.61;92.48;100848.53;5008762;28;20524;-76
2022/10/09 04:35:51;;;;;;;9.40;2.03;;;;;;;7.58;91.98;100849.06;5008964;28;20052;-76
2022/10/09 04:38:18;;;;;;;9.50;1.92;;;;;;;7.60;92.01;100841.31;5041528;28;20079;-76
2022/10/09 04:40:43;;;;;;;6.28;1.48;;;;;;;7.56;92.23;100834.66;5058154;28;20028;-76
2022/10/09 04:43:08;;;;;;;6.22;2.05;;;;;;;7.56;92.64;100841.03;5008573;28;20021;-76
2022/10/09 04:45:38;;;;;;;8.65;1.98;;;;;;;7.56;92.63;100829.13;5008347;28;20112;-76
2022/10/09 04:48:03;;;;;;;6.05;2.75;;;;;;;7.53;92.61;100826.91;5024803;28;20107;-76
2022/10/09 04:50:29;;;;;;;7.60;2.05;;;;;;;7.50;93.10;100824.69;5041275;28;20033;-76
2022/10/09 04:52:54;;;;;;;7.20;2.30;;;;;;;7.49;92.77;100823.00;5024487;28;20028;-76
2022/10/09 04:55:20;;;;;;;6.07;1.90;;;;;;;7.48;93.02;100815.81;5008616;28;20029;-76
2022/10/09 04:57:45;;;;;;;5.80;1.70;;;;;;;7.47;92.91;100814.16;5023522;28;20481;-76
2022/10/09 05:00:11;;;;;;;6.80;1.98;;;;;;;7.46;92.71;100818.84;5001739;28;20613;-76
2022/10/09 05:02:37;;;;;;;6.22;1.95;;;;;;;7.47;92.67;100815.00;5021036;28;20113;-76
2022/10/09 05:05:03;;;;;;;10.60;2.33;;;;;;;7.44;92.67;100818.28;5022623;28;20058;-76
2022/10/09 05:07:28;;;;;;;5.93;1.88;;;;;;;7.41;94.14;100813.28;5030664;28;20021;-76
2022/10/09 05:09:54;;;;;;;8.90;1.88;;;;;;;7.39;93.66;100813.53;5040885;28;20029;-76
2022/10/09 05:12:19;;;;;;;7.70;2.00;;;;;;;7.32;93.15;100801.88;5020093;28;20041;-76
2022/10/09 05:14:45;;;;;;;9.05;2.28;;;;;;;7.35;93.32;100806.91;5005843;28;20437;-76
2022/10/09 05:17:10;;;;;;;6.47;2.00;;;;;;;7.32;93.41;100801.88;5018964;28;20537;-76
2022/10/09 05:19:36;;;;;;;7.97;2.25;;;;;;;7.29;94.00;100801.59;5020246;28;20036;-76
2022/10/09 05:22:01;;;;;;;6.05;1.98;;;;;;;7.29;93.67;100799.66;5020763;28;20029;-76
2022/10/09 05:24:27;;;;;;;9.05;2.15;;;;;;;7.29;93.48;100796.88;5001325;28;20030;-76
2022/10/09 05:26:52;;;;;;;5.72;1.98;;;;;;;7.28;92.74;100797.16;5017641;28;20401;-76
2022/10/09 05:29:18;;;;;;;6.72;1.95;;;;;;;7.27;92.67;100793.56;5011001;28;20492;-76
2022/10/09 05:31:44;;;;;;;6.35;1.98;;;;;;;7.27;93.47;100793.56;5000938;28;20038;-76
2022/10/09 05:34:09;;;;;;;7.38;1.90;;;;;;;7.24;92.87;100783.03;5023646;28;20025;-76
2022/10/09 05:36:35;;;;;;;6.32;1.85;;;;;;;7.24;93.09;100788.56;5007670;28;20135;-76
2022/10/09 05:39:00;;;;;;;7.90;2.10;;;;;;;7.21;93.39;100777.22;5040376;28;20029;-76
2022/10/09 05:41:27;;;;;;;5.65;1.98;;;;;;;7.18;93.61;100778.56;5040625;28;20033;-76
2022/10/09 05:43:52;;;;;;;5.53;1.58;;;;;;;7.15;93.87;100774.41;5024417;28;20029;-75
2022/10/09 05:46:20;;;;;;;7.05;2.15;;;;;;;7.12;94.05;100779.63;5040098;28;20021;-76
2022/10/09 05:48:50;;;;;;;5.93;1.65;;;;;;;7.11;93.74;100772.47;5007343;28;20021;-76
2022/10/09 05:51:17;;;;;;;6.22;2.15;;;;;;;7.08;94.02;100773.81;5024422;28;20029;-76
2022/10/09 05:53:43;;;;;;;6.85;2.55;;;;;;;7.07;93.93;100771.31;5007621;28;20064;-76
2022/10/09 05:56:23;;;;;;;6.40;1.70;;;;;;;7.07;93.92;100771.31;5005455;28;20037;-75
2022/10/09 05:58:50;;;;;;;5.93;1.90;;;;;;;7.03;94.25;100765.50;5024686;28;20036;-76
2022/10/09 06:01:16;;;;;;;6.18;2.08;;;;;;;7.00;94.71;100765.19;4997690;28;20187;-76
2022/10/09 06:03:41;;;;;;;5.43;1.90;;;;;;;7.01;94.67;100766.84;5020140;28;20060;-76
2022/10/09 06:06:07;;;;;;;7.95;2.10;;;;;;;6.99;95.09;100772.63;5000644;28;20044;-76
2022/10/09 06:08:36;;;;;;;5.63;1.80;;;;;;;6.99;94.65;100771.78;5000891;28;20425;-76
2022/10/09 06:11:09;;;;;;;7.95;2.25;;;;;;;6.98;94.63;100759.09;5016801;28;20021;-76
2022/10/09 06:13:34;;;;;;;8.80;2.33;;;;;;;6.99;94.89;100769.03;5008568;28;20430;-76
2022/10/09 06:16:00;;;;;;;5.55;1.70;;;;;;;6.93;95.17;100765.41;5035382;28;20079;-76
2022/10/09 06:18:26;;;;;;;7.63;2.38;;;;;;;6.94;94.56;100770.66;5039926;28;20485;-76
2022/10/09 06:20:55;;;;;;;6.53;2.13;;;;;;;6.91;95.26;100762.91;5024861;28;20060;-76
2022/10/09 06:23:21;;;;;;;8.65;2.10;;;;;;;6.92;95.51;100770.09;5020129;28;20374;-76
2022/10/09 06:25:57;;;;;;;9.77;2.28;;;;;;;6.88;95.86;100760.69;5019907;28;20037;-76
2022/10/09 06:28:22;;;;;;;10.27;2.38;;;;;;;6.88;96.16;100768.13;5000527;28;20038;-76
2022/10/09 06:30:48;;;;;;;5.57;2.10;;;;;;;6.88;95.76;100762.59;5037416;28;20557;-75
2022/10/09 06:33:14;;;;;;;8.63;2.22;;;;;;;6.89;95.37;100756.00;5023041;28;20021;-76
2022/10/09 06:35:39;;;;;;;7.70;2.35;;;;;;;6.87;96.16;100752.66;5006911;28;20104;-76
2022/10/09 06:38:05;;;;;;;8.23;2.33;;;;;;;6.83;96.25;100759.81;5023056;28;20037;-76
2022/10/09 06:40:34;;;;;;;10.65;2.33;;;;;;;6.81;96.81;100757.31;5006279;28;20025;-76
2022/10/09 06:43:00;;;;;;;4.88;1.83;;;;;;;6.80;96.10;100755.66;5006967;28;20021;-76
2022/10/09 06:45:25;;;;;;;10.73;2.05;;;;;;;6.83;95.95;100749.59;5022707;28;20032;-76
2022/10/09 06:47:51;;;;;;;5.93;1.95;;;;;;;6.91;95.88;100751.88;5022651;28;20067;-76
2022/10/09 06:50:16;;;;;;;5.15;2.08;;;;;;;6.98;96.72;100745.28;5021278;28;20028;-73
2022/10/09 06:52:42;;;;;;;7.22;2.17;;;;;;;7.03;96.88;100753.63;5036785;28;20037;-76
2022/10/09 06:55:07;;;;;;;7.35;2.20;;;;;;;7.03;98.90;100753.63;5031892;28;20037;-77
2022/10/09 06:57:33;;;;;;;9.15;2.25;;;;;;;7.08;98.86;100759.19;5024859;28;20033;-77
2022/10/09 06:59:58;;;;;;;7.10;1.98;;;;;;;7.14;98.37;100749.84;5022530;28;20061;-77
2022/10/09 07:02:24;;;;;;;9.68;2.50;;;;;;;7.20;97.60;100748.75;5020377;28;20034;-76
2022/10/09 07:04:49;;;;;;;6.82;1.92;;;;;;;7.30;96.78;100747.97;4999285;28;20092;-69
2022/10/09 07:07:15;;;;;;;7.45;1.90;;;;;;;7.38;96.69;100753.88;5017056;28;20382;-71
2022/10/09 07:09:40;;;;;;;8.10;2.45;;;;;;;7.50;96.47;100752.81;5054327;28;20128;-76
2022/10/09 07:12:06;;;;;;;6.72;2.00;;;;;;;7.60;96.49;100747.34;4986176;28;20116;-76
2022/10/09 07:14:31;;;;;;;7.82;2.08;;;;;;;7.72;95.81;100744.38;4991627;28;20025;-76
2022/10/09 07:16:57;;;;;;;4.75;1.85;;;;;;;7.84;95.60;100736.69;5022071;28;20036;-76
2022/10/09 07:19:22;;;;;;;7.20;2.15;;;;;;;7.97;95.75;100732.59;5019569;28;20041;-76
2022/10/09 07:21:48;;;;;;;9.63;2.25;;;;;;;8.08;96.04;100731.53;4998943;28;20029;-76
2022/10/09 07:24:14;;;;;;;6.63;2.47;;;;;;;8.19;95.40;100722.13;5013408;28;20025;-76
2022/10/09 07:26:41;;;;;;;5.75;1.90;;;;;;;8.27;95.44;100712.44;4998957;28;20037;-75
2022/10/09 07:29:07;;;;;;;8.43;2.20;;;;;;;8.38;95.84;100713.31;4981899;28;20388;-76
2022/10/09 07:31:33;;;;;;;7.20;2.20;;;;;;;8.43;96.40;100710.56;4998660;28;20038;-76
2022/10/09 07:33:58;;;;;;;5.90;2.13;;;;;;;8.56;96.75;100709.22;4998944;28;20034;-76
2022/10/09 07:36:24;;;;;;;7.65;2.67;;;;;;;8.71;96.27;100709.22;5016634;28;20037;-76
2022/10/09 07:38:50;;;;;;;10.77;2.67;;;;;;;8.77;96.76;100705.31;4997931;28;20033;-76
2022/10/09 07:41:16;;;;;;;9.00;2.25;;;;;;;8.91;96.63;100706.44;5020785;28;20155;-76
2022/10/09 07:43:41;;;;;;;6.38;2.50;;;;;;;9.02;95.85;100704.47;4985999;28;20033;-76
2022/10/09 07:46:11;;;;;;;6.85;2.45;;;;;;;9.11;96.34;100702.81;5018385;28;20505;-77
2022/10/09 07:48:37;;;;;;;8.15;2.58;;;;;;;9.22;96.50;100700.00;4998943;28;20030;-76
2022/10/09 07:51:10;;;;;;;11.35;2.50;;;;;;;9.36;95.99;100688.06;5006724;28;20033;-76
2022/10/09 07:53:36;;;;;;;6.78;2.90;;;;;;;9.45;96.11;100693.03;5019877;28;20126;-77
2022/10/09 07:56:03;;;;;;;6.93;2.60;;;;;;;9.59;95.51;100694.09;4986001;28;20037;-76
2022/10/09 07:58:28;;;;;;;10.40;2.42;;;;;;;9.72;95.43;100687.09;5034996;28;20029;-76
2022/10/09 08:00:54;;;;;;;7.55;2.38;;;;;;;9.89;94.59;100687.59;4985496;28;20056;-77
2022/10/09 08:03:19;;;;;;;7.88;2.10;;;;;;;10.04;94.34;100693.03;4999787;28;20022;-77
2022/10/09 08:05:55;;;;;;;5.53;1.95;;;;;;;10.19;93.28;100691.28;5015008;28;20049;-77
2022/10/09 08:08:21;;;;;;;6.88;1.98;;;;;;;10.34;94.20;100688.47;5005859;28;20162;-76
2022/10/09 08:10:46;;;;;;;5.78;1.80;;;;;;;10.47;93.05;100687.81;4999660;28;20141;-76
2022/10/09 08:13:12;;;;;;;8.18;2.42;;;;;;;10.60;92.99;100686.31;4999990;28;20037;-76
2022/10/09 08:15:41;;;;;;;5.80;1.85;;;;;;;10.80;92.57;100684.50;5013478;28;20683;-77
2022/10/09 08:18:08;;;;;;;5.35;1.75;;;;;;;10.92;92.14;100680.22;4999983;28;20033;-76
2022/10/09 08:20:33;;;;;;;7.80;2.53;;;;;;;11.09;91.44;100679.78;5017007;28;20378;-76
2022/10/09 08:22:59;;;;;;;4.05;1.48;;;;;;;11.23;91.02;100674.34;4998881;28;20026;-76
2022/10/09 08:25:24;;;;;;;8.82;2.20;;;;;;;11.38;90.14;100665.81;5008085;28;20380;-76
2022/10/09 08:27:53;;;;;;;8.18;2.08;;;;;;;11.55;89.13;100670.91;5002315;28;20478;-76
2022/10/09 08:30:18;;;;;;;7.20;1.95;;;;;;;11.73;88.22;100660.97;5031789;28;20030;-77
2022/10/09 08:32:44;;;;;;;5.93;1.77;;;;;;;11.88;87.94;100659.13;5019919;28;20033;-77
2022/10/09 08:35:10;;;;;;;6.50;2.28;;;;;;;12.00;86.92;100663.09;5017898;28;20553;-77
2022/10/09 08:37:35;;;;;;;6.53;2.00;;;;;;;12.13;86.78;100655.97;5037999;28;20049;-77
2022/10/09 08:40:02;;;;;;;7.05;1.73;;;;;;;12.27;86.39;100651.31;5003753;28;20037;-77
2022/10/09 08:42:31;;;;;;;7.75;1.73;;;;;;;12.44;86.10;100649.94;5008875;28;20028;-77
2022/10/09 08:44:56;;;;;;;6.30;1.80;;;;;;;12.54;85.39;100649.78;5022311;28;20037;-77
2022/10/09 08:47:33;;;;;;;9.40;2.22;;;;;;;12.70;86.00;100653.97;5021676;28;20025;-77
2022/10/09 08:50:00;;;;;;;5.38;1.70;;;;;;;12.84;85.43;100654.00;5039265;28;20443;-77
2022/10/09 08:52:59;;;;;;;6.50;1.77;;;;;;;12.99;85.69;100655.69;5024954;28;20036;-77
2022/10/09 08:55:32;;;;;;;6.03;1.73;;;;;;;13.13;84.54;100650.13;5027232;28;20501;-77
2022/10/09 08:58:03;;;;;;;5.95;1.63;;;;;;;13.28;85.68;100651.81;5025256;28;20512;-77
2022/10/09 09:01:06;;;;;;;8.00;1.88;;;;;;;13.41;85.13;100643.47;5019465;28;20029;-76
2022/10/09 09:03:40;;;;;;;5.88;1.50;;;;;;;13.56;84.55;100650.69;5006024;28;20473;-76
2022/10/09 09:06:09;;;;;;;6.38;1.73;;;;;;;13.71;83.30;100641.19;5014467;28;20042;-76
2022/10/09 09:08:53;;;;;;;8.35;1.50;;;;;;;13.87;80.89;100633.28;5001672;28;20041;-76
2022/10/09 09:11:50;;;;;;;8.32;2.25;;;;;;;14.05;81.39;100637.91;5026472;28;20104;-77
2022/10/09 09:14:25;;;;;;;8.02;1.75;;;;;;;14.20;81.39;100644.28;5020819;28;20120;-76
2022/10/09 09:17:09;;;;;;;7.28;1.42;;;;;;;14.37;80.12;100644.41;5038745;28;20548;-76
2022/10/09 09:19:53;;;;;;;7.13;1.60;;;;;;;14.55;79.26;100639.00;5020877;28;20015;-76
2022/10/09 09:22:19;;;;;;;8.45;1.67;;;;;;;14.68;77.75;100635.28;5020799;28;20128;-77
2022/10/09 09:24:50;;;;;;;11.95;1.73;;;;;;;14.78;77.29;100632.25;5004554;28;20029;-76
2022/10/09 09:27:20;;;;;;;7.65;1.80;;;;;;;14.86;77.00;100627.84;4985665;28;20275;-77
2022/10/09 09:29:50;;;;;;;6.10;1.60;;;;;;;14.97;78.25;100626.44;5037489;28;20099;-76
2022/10/09 09:32:23;;;;;;;5.93;1.70;;;;;;;15.08;76.50;100624.19;5038385;28;20057;-76
2022/10/09 09:34:49;;;;;;;3.97;1.20;;;;;;;15.22;76.57;100624.09;5024091;28;20078;-76
2022/10/09 09:37:14;;;;;;;9.52;1.35;;;;;;;15.29;74.46;100625.25;5007726;28;20029;-76
2022/10/09 09:39:40;;;;;;;8.43;1.63;;;;;;;15.34;74.50;100621.50;4987819;28;20083;-76
2022/10/09 09:42:08;;;;;;;8.00;1.85;;;;;;;15.44;74.54;100626.00;5035858;28;20037;-76
2022/10/09 09:44:36;;;;;;;9.90;1.65;;;;;;;15.61;72.86;100606.44;5037315;28;20040;-76
2022/10/09 09:47:01;;;;;;;6.82;1.83;;;;;;;15.74;71.52;100610.28;4987014;28;20052;-76
2022/10/09 09:49:28;;;;;;;4.85;1.48;;;;;;;15.88;70.17;100612.94;5000649;28;20113;-76
2022/10/09 09:51:55;;;;;;;5.32;1.50;;;;;;;16.00;69.74;100615.94;5020674;28;20037;-76
2022/10/09 09:54:22;;;;;;;7.03;1.60;;;;;;;16.03;70.48;100610.50;5017171;28;20067;-76
2022/10/09 09:56:48;;;;;;;6.13;1.75;;;;;;;16.07;70.91;100605.03;5016977;28;20037;-76
2022/10/09 09:59:33;;;;;;;4.15;1.30;;;;;;;16.13;72.01;100602.91;5023851;28;20421;-76
2022/10/09 10:02:01;;;;;;;6.28;1.63;;;;;;;16.22;71.52;100589.75;5011648;28;20030;-76
2022/10/09 10:04:27;;;;;;;6.00;1.45;;;;;;;16.36;69.74;100589.56;5035957;28;20121;-76
2022/10/09 10:06:53;;;;;;;4.18;1.40;;;;;;;16.46;69.94;100583.59;4987689;28;20132;-76
2022/10/09 10:09:21;;;;;;;3.47;1.30;;;;;;;16.49;69.34;100575.38;5003831;28;20018;-76
2022/10/09 10:11:58;;;;;;;7.25;1.70;;;;;;;16.54;69.62;100577.16;5022817;28;20036;-76
2022/10/09 10:14:23;;;;;;;6.05;1.33;;;;;;;16.70;67.87;100572.66;5002476;28;20033;-77
2022/10/09 10:16:52;;;;;;;8.45;1.38;;;;;;;16.81;66.43;100561.94;5008012;28;20026;-76
2022/10/09 10:19:34;;;;;;;7.90;1.50;;;;;;;16.91;65.61;100553.19;5017881;28;20375;-77
2022/10/09 10:22:04;;;;;;;7.85;1.45;;;;;;;17.01;65.74;100557.59;5000995;28;20490;-77
2022/10/09 10:24:32;;;;;;;4.88;1.50;;;;;;;17.01;65.98;100553.97;4987360;28;20033;-76
2022/10/09 10:27:16;;;;;;;8.65;1.65;;;;;;;17.05;66.58;100552.97;5028441;28;20026;-75
2022/10/09 10:29:43;;;;;;;4.68;1.48;;;;;;;17.05;66.94;100547.34;5018298;28;20056;-76
2022/10/09 10:32:13;;;;;;;7.75;1.30;;;;;;;17.18;65.56;100532.25;4999893;28;20121;-76
2022/10/09 10:34:54;;;;;;;5.93;1.40;;;;;;;17.25;65.74;100531.72;5027105;28;20028;-76
2022/10/09 10:37:47;;;;;;;5.50;1.50;;;;;;;17.30;65.87;100527.88;5009368;28;20040;-76
2022/10/09 10:40:55;;;;;;;3.47;1.10;;;;;;;17.38;65.33;100519.44;5015535;28;20062;-76
2022/10/09 10:43:42;;;;;;;5.72;1.45;;;;;;;17.45;63.48;100516.09;5049929;28;20025;-75
2022/10/09 10:46:40;;;;;;;6.57;1.70;;;;;;;17.42;64.45;100514.78;5037823;28;20033;-76
2022/10/09 10:49:06;;;;;;;6.43;1.30;;;;;;;17.53;63.89;100503.16;5007591;28;20044;-75
2022/10/09 10:51:46;;;;;;;5.82;1.30;;;;;;;17.58;64.98;100505.78;5020733;28;20069;-75
2022/10/09 10:54:36;;;;;;;6.25;1.27;;;;;;;17.65;63.50;100494.78;5028822;28;20075;-76
2022/10/09 10:57:15;;;;;;;3.78;1.30;;;;;;;17.71;65.02;100492.59;5021184;28;20029;-75
2022/10/09 11:00:10;;;;;;;8.90;1.60;;;;;;;17.63;64.91;100495.16;5037823;28;20211;-75
2022/10/09 11:02:44;;;;;;;5.75;1.42;;;;;;;17.81;62.97;100481.00;5010795;28;20103;-75
2022/10/09 11:05:17;;;;;;;7.22;1.30;;;;;;;17.85;63.23;100487.56;5017836;28;20050;-75
2022/10/09 11:07:52;;;;;;;5.45;1.30;;;;;;;17.84;64.39;100475.50;5001882;28;20046;-75
2022/10/09 11:10:42;;;;;;;5.63;1.35;;;;;;;17.95;63.08;100473.09;5025783;28;20437;-75
2022/10/09 11:13:17;;;;;;;4.03;1.50;;;;;;;18.07;63.27;100461.88;5000519;28;20481;-75
2022/10/09 11:15:48;;;;;;;3.78;1.30;;;;;;;18.13;62.73;100461.69;5035270;28;20021;-75
2022/10/09 11:18:20;;;;;;;6.68;1.30;;;;;;;18.15;63.36;100462.97;5020824;28;20120;-73
2022/10/09 11:21:06;;;;;;;4.28;1.40;;;;;;;18.20;62.89;100461.94;5024928;28;20020;-73
2022/10/09 11:23:49;;;;;;;6.13;1.42;;;;;;;18.20;61.45;100454.34;4999410;28;20126;-73
2022/10/09 11:26:20;;;;;;;3.88;1.30;;;;;;;18.25;60.39;100454.13;5003678;28;20504;-73
2022/10/09 11:28:52;;;;;;;5.55;1.42;;;;;;;18.30;59.76;100442.66;5034915;28;20068;-73
2022/10/09 11:31:36;;;;;;;4.32;1.45;;;;;;;18.38;60.00;100438.06;4999177;28;20030;-73
2022/10/09 11:34:37;;;;;;;5.03;1.50;;;;;;;18.43;60.10;100437.84;5025863;28;20037;-73
2022/10/09 11:37:02;;;;;;;4.78;1.55;;;;;;;18.47;60.40;100433.19;5029810;28;20393;-73
2022/10/09 11:39:29;;;;;;;6.72;1.58;;;;;;;18.46;61.06;100437.16;5038416;28;20025;-73
2022/10/09 11:41:55;;;;;;;4.22;1.15;;;;;;;18.52;62.12;100432.94;5038822;28;20497;-73